createdAt,value
2023-02-01T00:13:10.439Z,99701.63
2023-02-01T00:15:38.947Z,99698.04
2023-02-01T00:18:07.334Z,99696.66
2023-02-01T00:20:35.970Z,99691.58
2023-02-01T00:23:04.262Z,99693.20
2023-02-01T00:25:32.875Z,99693.16
2023-02-01T00:28:02.049Z,99687.28
2023-02-01T00:30:30.935Z,99690.20
2023-02-01T00:32:59.216Z,99691.73
2023-02-01T00:35:29.611Z,99690.13
2023-02-01T00:38:00.290Z,99686.21
2023-02-01T00:40:28.856Z,99683.92
2023-02-01T00:42:58.964Z,99680.65
2023-02-01T00:45:27.359Z,99683.23
2023-02-01T00:47:56.370Z,99683.48
2023-02-01T00:50:24.793Z,99684.50
2023-02-01T00:52:53.858Z,99681.58
2023-02-01T00:55:25.276Z,99686.58
2023-02-01T00:57:53.855Z,99685.71
2023-02-01T01:00:22.520Z,99685.90
2023-02-01T01:02:51.232Z,99690.36
2023-02-01T01:05:19.969Z,99694.52
2023-02-01T01:07:48.223Z,99694.52
2023-02-01T01:10:17.188Z,99694.90
2023-02-01T01:12:45.467Z,99692.55
2023-02-01T01:15:13.683Z,99691.52
2023-02-01T01:17:42.272Z,99690.33
2023-02-01T01:20:11.395Z,99691.77
2023-02-01T01:22:40.008Z,99693.06
2023-02-01T01:25:08.491Z,99698.48
2023-02-01T01:27:37.275Z,99700.65
2023-02-01T01:30:06.484Z,99698.74
2023-02-01T01:32:34.751Z,99701.80
2023-02-01T01:35:03.233Z,99701.24
2023-02-01T01:37:32.840Z,99699.27
2023-02-01T01:40:01.516Z,99695.41
2023-02-01T01:42:30.078Z,99689.80
2023-02-01T01:45:00.010Z,99689.73
2023-02-01T01:47:33.421Z,99686.19
2023-02-01T01:50:02.655Z,99684.89
2023-02-01T01:52:32.334Z,99684.49
2023-02-01T01:55:00.935Z,99680.11
2023-02-01T01:57:33.077Z,99680.09
2023-02-01T02:00:04.646Z,99681.34
2023-02-01T02:03:08.445Z,99680.27
2023-02-01T02:05:36.722Z,99681.89
2023-02-01T02:08:05.411Z,99681.75
2023-02-01T02:10:53.252Z,99681.02
2023-02-01T02:13:21.833Z,99681.23
2023-02-01T02:16:14.518Z,99676.41
2023-02-01T02:19:07.743Z,99674.85
2023-02-01T02:21:42.161Z,99675.75
2023-02-01T02:24:48.530Z,99675.31
2023-02-01T02:27:25.639Z,99674.95
2023-02-01T02:30:07.511Z,99677.17
2023-02-01T02:32:48.894Z,99675.18
2023-02-01T02:35:32.331Z,99676.27
2023-02-01T02:38:13.606Z,99675.63
2023-02-01T02:41:40.060Z,99675.84
2023-02-01T02:44:50.497Z,99673.69
2023-02-01T02:47:42.455Z,99669.38
2023-02-01T02:50:38.116Z,99670.05
2023-02-01T02:53:41.565Z,99668.38
2023-02-01T02:56:28.890Z,99666.94
2023-02-01T02:59:16.315Z,99663.48
2023-02-01T03:02:04.754Z,99663.13
2023-02-01T03:04:33.450Z,99661.38
2023-02-01T03:07:15.798Z,99659.85
2023-02-01T03:09:45.364Z,99661.77
2023-02-01T03:12:32.381Z,99661.56
2023-02-01T03:15:08.392Z,99664.65
2023-02-01T03:17:39.429Z,99664.23
2023-02-01T03:20:08.831Z,99661.34
2023-02-01T03:22:36.979Z,99661.86
2023-02-01T03:25:10.967Z,99660.80
2023-02-01T03:27:46.550Z,99659.77
2023-02-01T03:30:18.971Z,99658.83
2023-02-01T03:33:00.312Z,99656.70
2023-02-01T03:36:11.253Z,99658.92
2023-02-01T03:39:04.619Z,99652.47
2023-02-01T03:41:50.102Z,99651.04
2023-02-01T03:55:43.644Z,99650.12
2023-02-01T03:58:16.670Z,99643.52
2023-02-01T04:00:46.141Z,99648.39
2023-02-01T04:03:14.256Z,99648.20
2023-02-01T04:05:42.473Z,99646.60
2023-02-01T04:08:12.028Z,99647.98
2023-02-01T04:10:45.937Z,99645.42
2023-02-01T04:13:15.651Z,99646.84
2023-02-01T04:15:44.332Z,99648.05
2023-02-01T04:18:12.362Z,99649.42
2023-02-01T04:20:40.792Z,99653.39
2023-02-01T04:23:09.170Z,99653.06
2023-02-01T04:25:37.489Z,99653.77
2023-02-01T04:28:06.173Z,99654.29
2023-02-01T04:30:35.009Z,99657.49
2023-02-01T04:33:06.378Z,99654.71
2023-02-01T04:35:35.264Z,99658.29
2023-02-01T04:38:04.571Z,99659.11
2023-02-01T04:40:34.681Z,99657.08
2023-02-01T04:43:04.801Z,99658.55
2023-02-01T04:45:33.090Z,99659.27
2023-02-01T04:48:05.387Z,99661.09
2023-02-01T04:50:33.625Z,99659.34
2023-02-01T04:53:01.696Z,99657.10
2023-02-01T04:55:31.861Z,99655.63
2023-02-01T04:58:00.614Z,99659.13
2023-02-01T05:00:29.192Z,99659.17
2023-02-01T05:02:57.596Z,99658.49
2023-02-01T05:05:27.435Z,99659.80
2023-02-01T05:07:55.905Z,99653.52
2023-02-01T05:10:24.380Z,99654.48
2023-02-01T05:13:11.771Z,99654.77
2023-02-01T05:15:40.205Z,99653.36
2023-02-01T05:18:08.832Z,99653.71
2023-02-01T05:20:38.238Z,99654.52
2023-02-01T05:23:07.026Z,99647.92
2023-02-01T05:25:35.407Z,99650.83
2023-02-01T05:28:04.216Z,99653.63
2023-02-01T05:30:36.424Z,99654.52
2023-02-01T05:33:04.832Z,99651.30
2023-02-01T05:35:34.250Z,99650.23
2023-02-01T05:38:04.468Z,99646.45
2023-02-01T05:40:34.233Z,99646.61
2023-02-01T05:43:02.401Z,99645.64
2023-02-01T05:45:30.938Z,99648.08
2023-02-01T05:47:59.526Z,99644.44
2023-02-01T05:51:29.611Z,99643.50
2023-02-01T05:53:58.247Z,99643.46
2023-02-01T05:56:28.636Z,99643.01
2023-02-01T05:58:57.111Z,99648.41
2023-02-01T06:01:25.794Z,99647.20
2023-02-01T06:03:54.554Z,99648.33
2023-02-01T06:06:22.889Z,99652.21
2023-02-01T06:08:51.550Z,99651.45
2023-02-01T06:11:31.741Z,99650.65
2023-02-01T06:14:01.739Z,99650.41
2023-02-01T06:16:30.063Z,99650.82
2023-02-01T06:18:59.413Z,99650.98
2023-02-01T06:21:28.195Z,99651.64
2023-02-01T06:23:58.763Z,99656.24
2023-02-01T06:26:29.602Z,99655.61
2023-02-01T06:28:58.391Z,99653.67
2023-02-01T06:31:26.900Z,99655.23
2023-02-01T06:33:55.715Z,99652.94
2023-02-01T06:36:25.013Z,99653.11
2023-02-01T06:38:57.740Z,99653.61
2023-02-01T06:41:29.259Z,99653.44
2023-02-01T06:43:58.037Z,99649.11
2023-02-01T06:46:26.424Z,99651.86
2023-02-01T06:48:55.523Z,99653.20
2023-02-01T06:51:26.359Z,99651.78
2023-02-01T06:53:54.694Z,99651.20
2023-02-01T06:56:23.107Z,99648.48
2023-02-01T06:58:51.487Z,99648.45
2023-02-01T07:01:19.962Z,99648.46
2023-02-01T07:03:52.268Z,99648.27
2023-02-01T07:06:20.832Z,99647.48
2023-02-01T07:08:50.424Z,99644.86
2023-02-01T07:11:19.671Z,99639.33
2023-02-01T07:13:47.868Z,99636.64
2023-02-01T07:16:18.580Z,99635.46
2023-02-01T07:18:47.000Z,99629.52
2023-02-01T07:21:15.309Z,99632.99
2023-02-01T07:23:44.083Z,99632.60
2023-02-01T07:26:14.663Z,99633.71
2023-02-01T07:28:43.423Z,99634.92
2023-02-01T07:31:19.995Z,99634.95
2023-02-01T07:33:54.012Z,99629.54
2023-02-01T07:36:22.250Z,99624.24
2023-02-01T07:38:51.965Z,99625.47
2023-02-01T07:41:20.279Z,99619.01
2023-02-01T07:43:51.905Z,99614.80
2023-02-01T07:46:20.080Z,99613.36
2023-02-01T07:48:48.456Z,99607.01
2023-02-01T07:55:18.388Z,99613.75
2023-02-01T07:57:46.841Z,99609.85
2023-02-01T08:00:34.517Z,99605.82
2023-02-01T08:03:04.824Z,99603.72
2023-02-01T08:05:32.990Z,99603.23
2023-02-01T08:08:02.140Z,99605.62
2023-02-01T08:10:31.295Z,99604.55
2023-02-01T08:13:01.111Z,99603.07
2023-02-01T08:15:30.407Z,99601.86
2023-02-01T08:17:59.600Z,99605.77
2023-02-01T08:20:28.495Z,99602.84
2023-02-01T08:22:57.391Z,99601.37
2023-02-01T08:25:25.775Z,99595.04
2023-02-01T08:27:55.581Z,99595.02
2023-02-01T08:30:24.173Z,99597.20
2023-02-01T08:32:52.643Z,99592.83
2023-02-01T08:35:25.776Z,99593.86
2023-02-01T08:37:58.926Z,99589.00
2023-02-01T08:40:27.517Z,99590.67
2023-02-01T08:42:58.136Z,99592.63
2023-02-01T08:45:27.359Z,99586.86
2023-02-01T08:47:58.922Z,99586.23
2023-02-01T08:50:27.556Z,99582.67
2023-02-01T08:53:00.478Z,99583.08
2023-02-01T09:06:17.959Z,99565.34
2023-02-01T09:08:52.392Z,99558.55
2023-02-01T09:11:21.113Z,99547.44
2023-02-01T09:13:50.485Z,99548.17
2023-02-01T09:16:19.011Z,99541.07
2023-02-01T09:18:56.017Z,99536.60
2023-02-01T09:21:36.083Z,99533.02
2023-02-01T09:24:05.278Z,99532.45
2023-02-01T09:26:35.582Z,99529.14
2023-02-01T09:29:04.705Z,99524.55
2023-02-01T09:31:33.974Z,99516.87
2023-02-01T09:34:02.348Z,99514.39
2023-02-01T09:36:31.339Z,99513.90
2023-02-01T09:39:00.021Z,99510.80
2023-02-01T09:41:49.950Z,99506.99
2023-02-01T09:44:18.173Z,99504.66
2023-02-01T09:46:46.698Z,99500.61
2023-02-01T09:49:18.071Z,99495.15
2023-02-01T09:51:47.758Z,99497.14
2023-02-01T09:54:27.863Z,99492.55
2023-02-01T09:57:08.178Z,99490.33
2023-02-01T09:59:42.401Z,99489.84
2023-02-01T10:02:17.472Z,99485.20
2023-02-01T10:04:45.526Z,99492.19
2023-02-01T10:07:56.064Z,99490.90
2023-02-01T10:10:31.160Z,99488.52
2023-02-01T10:13:20.271Z,99487.71
2023-02-01T10:15:54.238Z,99485.44
2023-02-01T10:18:43.439Z,99488.40
2023-02-01T10:21:40.113Z,99487.90
2023-02-01T10:24:38.778Z,99489.95
2023-02-01T10:27:13.864Z,99486.20
2023-02-01T10:29:47.200Z,99479.29
2023-02-01T10:32:18.591Z,99474.55
2023-02-01T10:34:55.940Z,99467.81
2023-02-01T10:37:25.752Z,99466.61
2023-02-01T10:39:56.388Z,99463.94
2023-02-01T10:42:28.245Z,99460.66
2023-02-01T10:44:58.772Z,99456.86
2023-02-01T10:47:27.156Z,99454.14
2023-02-01T10:50:08.123Z,99450.67
2023-02-01T10:53:01.433Z,99446.27
2023-02-01T10:55:36.116Z,99445.81
2023-02-01T10:58:06.846Z,99444.15
2023-02-01T11:00:43.623Z,99441.29
2023-02-01T11:03:27.993Z,99443.04
2023-02-01T11:46:49.110Z,99412.97
2023-02-01T11:52:21.148Z,99410.36
2023-02-01T11:54:59.683Z,99403.54
2023-02-01T11:57:47.905Z,99403.11
2023-02-01T12:00:33.724Z,99399.65
2023-02-01T12:03:06.661Z,99390.45
2023-02-01T12:05:40.926Z,99395.63
2023-02-01T12:08:47.476Z,99389.09
2023-02-01T12:11:20.261Z,99393.17
2023-02-01T12:14:34.896Z,99391.15
2023-02-01T12:17:31.359Z,99387.55
2023-02-01T12:20:06.180Z,99385.55
2023-02-01T12:22:39.417Z,99382.79
2023-02-01T12:25:43.190Z,99380.31
2023-02-01T12:28:36.651Z,99379.45
2023-02-01T12:31:42.344Z,99380.60
2023-02-01T12:34:35.560Z,99378.62
2023-02-01T12:37:22.479Z,99374.10
2023-02-01T12:40:23.247Z,99375.84
2023-02-01T12:43:16.144Z,99378.41
2023-02-01T12:45:48.051Z,99382.56
2023-02-01T12:48:19.220Z,99382.25
2023-02-01T12:50:53.495Z,99380.29
2023-02-01T12:53:28.513Z,99379.39
2023-02-01T12:55:59.848Z,99370.30
2023-02-01T12:58:31.971Z,99374.02
2023-02-01T13:01:10.106Z,99374.14
2023-02-01T13:03:53.997Z,99377.86
2023-02-01T13:06:38.962Z,99379.31
2023-02-01T13:12:16.214Z,99372.89
2023-02-01T13:14:47.564Z,99372.70
2023-02-01T13:17:21.271Z,99370.08
2023-02-01T13:19:54.107Z,99372.70
2023-02-01T13:22:38.089Z,99373.48
2023-02-01T13:25:48.185Z,99373.55
2023-02-01T13:28:26.723Z,99374.20
2023-02-01T13:31:28.851Z,99372.32
2023-02-01T13:34:37.516Z,99371.05
2023-02-01T13:37:27.811Z,99371.23
2023-02-01T13:40:37.455Z,99366.70
2023-02-01T13:43:22.340Z,99370.34
2023-02-01T13:45:52.447Z,99370.91
2023-02-01T13:48:35.360Z,99372.77
2023-02-01T13:51:06.301Z,99374.60
2023-02-01T13:53:38.467Z,99372.27
2023-02-01T13:56:15.807Z,99373.77
2023-02-01T13:58:44.958Z,99370.29
2023-02-01T14:01:22.711Z,99371.77
2023-02-01T14:04:02.080Z,99373.07
2023-02-01T14:06:36.390Z,99371.14
2023-02-01T14:09:13.239Z,99373.87
2023-02-01T14:11:52.006Z,99375.60
2023-02-01T14:14:20.281Z,99382.05
2023-02-01T14:16:55.084Z,99381.73
2023-02-01T14:19:27.895Z,99378.23
2023-02-01T14:22:02.829Z,99375.79
2023-02-01T14:24:34.897Z,99376.43
2023-02-01T14:40:54.943Z,99378.60
2023-02-01T14:43:52.163Z,99380.95
2023-02-01T14:46:19.938Z,99387.15
2023-02-01T14:48:47.659Z,99390.81
2023-02-01T14:51:15.595Z,99389.39
2023-02-01T14:53:44.109Z,99395.91
2023-02-01T14:56:16.861Z,99397.47
2023-02-01T14:58:58.760Z,99400.27
2023-02-01T15:01:31.395Z,99400.51
2023-02-01T15:04:06.061Z,99401.34
2023-02-01T15:06:36.041Z,99405.73
2023-02-01T15:09:21.156Z,99409.83
2023-02-01T15:12:01.831Z,99408.63
2023-02-01T15:14:52.115Z,99411.34
2023-02-01T15:17:20.717Z,99419.13
2023-02-01T15:20:15.919Z,99419.69
2023-02-01T15:22:56.806Z,99422.00
2023-02-01T15:25:30.303Z,99430.73
2023-02-01T15:27:57.840Z,99431.30
2023-02-01T15:30:26.830Z,99432.02
2023-02-01T15:33:07.220Z,99433.90
2023-02-01T15:35:46.013Z,99433.55
2023-02-01T15:38:31.286Z,99436.48
2023-02-01T15:41:14.546Z,99438.83
2023-02-01T15:43:54.112Z,99435.49
2023-02-01T15:46:36.393Z,99433.70
2023-02-01T15:49:03.173Z,99440.44
2023-02-01T15:51:32.959Z,99441.20
2023-02-01T15:54:05.176Z,99441.55
2023-02-01T15:56:34.999Z,99443.11
2023-02-01T15:59:03.691Z,99447.27
2023-02-01T16:01:30.906Z,99446.48
2023-02-01T16:04:17.646Z,99449.05
2023-02-01T16:07:32.616Z,99445.45
2023-02-01T16:10:07.442Z,99444.46
2023-02-01T16:12:47.557Z,99440.12
2023-02-01T16:15:14.797Z,99439.52
2023-02-01T16:17:44.094Z,99447.70
2023-02-01T16:20:12.950Z,99449.70
2023-02-01T16:22:39.802Z,99449.44
2023-02-01T16:25:07.304Z,99452.11
2023-02-01T16:27:34.292Z,99453.34
2023-02-01T16:30:01.344Z,99454.84
2023-02-01T16:32:28.596Z,99452.48
2023-02-01T16:34:57.298Z,99452.70
2023-02-01T16:37:25.147Z,99453.35
2023-02-01T16:39:51.999Z,99454.44
2023-02-01T16:42:19.040Z,99449.40
2023-02-01T16:44:46.101Z,99454.58
2023-02-01T16:47:23.577Z,99457.33
2023-02-01T16:49:50.758Z,99458.63
2023-02-01T16:52:19.439Z,99455.70
2023-02-01T16:54:47.246Z,99454.27
2023-02-01T16:57:15.439Z,99455.55
2023-02-01T16:59:43.017Z,99452.48
2023-02-01T17:02:21.437Z,99448.66
2023-02-01T17:04:49.327Z,99450.21
2023-02-01T17:07:17.820Z,99453.39
2023-02-01T17:09:45.994Z,99457.77
2023-02-01T17:12:34.646Z,99460.30
2023-02-01T17:15:01.593Z,99458.61
2023-02-01T17:17:39.577Z,99461.56
2023-02-01T17:20:21.739Z,99459.99
2023-02-01T17:22:49.219Z,99460.29
2023-02-01T17:25:17.498Z,99459.49
2023-02-01T17:27:47.515Z,99465.50
2023-02-01T17:30:14.671Z,99469.80
2023-02-01T17:32:42.188Z,99469.59
2023-02-01T17:35:20.595Z,99468.94
2023-02-01T17:37:47.801Z,99467.98
2023-02-01T17:40:15.245Z,99471.39
2023-02-01T17:42:42.257Z,99476.77
2023-02-01T17:45:35.974Z,99475.73
2023-02-01T17:48:06.907Z,99476.66
2023-02-01T17:50:37.473Z,99477.52
2023-02-01T17:53:07.758Z,99476.32
2023-02-01T17:55:36.269Z,99477.82
2023-02-01T17:58:03.327Z,99473.29
2023-02-01T18:00:31.983Z,99467.27
2023-02-01T18:03:00.049Z,99461.48
2023-02-01T18:05:31.400Z,99461.36
2023-02-01T18:07:58.668Z,99464.13
2023-02-01T18:10:25.430Z,99466.45
2023-02-01T18:12:52.340Z,99465.77
2023-02-01T18:15:22.113Z,99460.67
2023-02-01T18:17:49.514Z,99463.85
2023-02-01T18:20:19.866Z,99464.30
2023-02-01T18:22:50.051Z,99462.62
2023-02-01T18:25:20.144Z,99461.88
2023-02-01T18:27:48.286Z,99467.84
2023-02-01T18:30:18.771Z,99469.02
2023-02-01T18:32:45.923Z,99475.08
2023-02-01T18:35:18.591Z,99473.07
2023-02-01T18:37:47.155Z,99475.23
2023-02-01T18:40:21.412Z,99474.08
2023-02-01T18:42:48.405Z,99473.85
2023-02-01T18:45:31.575Z,99476.33
2023-02-01T18:47:59.440Z,99476.89
2023-02-01T18:50:28.247Z,99476.63
2023-02-01T18:52:56.011Z,99474.94
2023-02-01T18:55:23.575Z,99471.80
2023-02-01T18:57:50.890Z,99469.96
2023-02-01T19:00:18.780Z,99470.39
2023-02-01T19:02:46.205Z,99472.10
2023-02-01T19:05:14.374Z,99469.42
2023-02-01T19:07:42.207Z,99466.50
2023-02-01T19:10:21.702Z,99464.05
2023-02-01T19:12:52.557Z,99464.38
2023-02-01T19:15:19.483Z,99464.84
2023-02-01T19:17:48.105Z,99464.25
2023-02-01T19:20:18.098Z,99468.32
2023-02-01T19:22:46.170Z,99464.10
2023-02-01T19:25:18.478Z,99466.16
2023-02-01T19:27:45.551Z,99463.77
2023-02-01T19:30:13.560Z,99465.09
2023-02-01T19:32:41.380Z,99463.68
2023-02-01T19:35:09.640Z,99462.52
2023-02-01T19:37:36.365Z,99457.60
2023-02-01T19:40:03.866Z,99456.84
2023-02-01T19:42:31.173Z,99458.77
2023-02-01T19:57:16.798Z,99456.67
2023-02-01T19:59:44.877Z,99454.80
2023-02-01T20:02:15.563Z,99452.52
2023-02-01T20:04:44.669Z,99454.42
2023-02-01T20:07:13.348Z,99457.45
2023-02-01T20:09:42.042Z,99453.87
2023-02-01T20:12:11.333Z,99454.48
2023-02-01T20:14:39.512Z,99455.86
2023-02-01T20:17:12.503Z,99457.11
2023-02-01T20:19:40.883Z,99458.83
2023-02-01T20:22:09.783Z,99457.26
2023-02-01T20:24:38.912Z,99455.12
2023-02-01T20:27:10.211Z,99451.88
2023-02-01T20:29:38.336Z,99457.21
2023-02-01T20:32:06.686Z,99458.16
2023-02-01T20:34:34.891Z,99455.25
2023-02-01T20:37:03.479Z,99455.23
2023-02-01T20:39:31.858Z,99455.48
2023-02-01T20:42:00.455Z,99459.70
2023-02-01T20:44:29.190Z,99459.46
2023-02-01T20:46:59.050Z,99463.83
2023-02-01T20:49:27.428Z,99463.26
2023-02-01T20:51:58.065Z,99460.79
2023-02-01T20:54:28.664Z,99462.55
2023-02-01T20:56:56.786Z,99459.48
2023-02-01T20:59:27.003Z,99460.83
2023-02-01T21:01:55.477Z,99458.17
2023-02-01T21:04:27.522Z,99459.33
2023-02-01T21:06:56.745Z,99463.67
2023-02-01T21:09:25.324Z,99468.22
2023-02-01T21:11:53.527Z,99473.54
2023-02-01T21:14:22.515Z,99474.29
2023-02-01T21:16:51.386Z,99470.95
2023-02-01T21:19:20.527Z,99472.55
2023-02-01T21:21:48.974Z,99474.13
2023-02-01T21:24:17.347Z,99477.84
2023-02-01T21:26:45.897Z,99479.65
2023-02-01T21:29:15.230Z,99482.84
2023-02-01T21:31:43.924Z,99480.34
2023-02-01T21:34:12.397Z,99483.61
2023-02-01T21:36:40.677Z,99489.25
2023-02-01T21:39:10.948Z,99486.41
2023-02-01T21:42:15.014Z,99480.88
2023-02-01T21:44:46.279Z,99476.73
2023-02-01T21:47:18.967Z,99480.67
2023-02-01T21:49:49.471Z,99479.77
2023-02-01T21:52:18.301Z,99479.76
2023-02-01T21:54:46.640Z,99478.29
2023-02-01T21:57:15.130Z,99473.10
2023-02-01T22:02:29.393Z,99472.37
2023-02-01T22:04:57.919Z,99471.10
2023-02-01T22:07:26.146Z,99474.02
2023-02-01T22:09:54.417Z,99472.77
2023-02-01T22:12:23.327Z,99469.09
2023-02-01T22:14:51.685Z,99470.35
2023-02-01T22:17:24.876Z,99468.40
2023-02-01T22:19:53.358Z,99467.66
2023-02-01T22:22:21.939Z,99462.20
2023-02-01T22:24:50.420Z,99464.50
2023-02-01T22:27:18.602Z,99468.94
2023-02-01T22:29:46.972Z,99470.14
2023-02-01T22:32:16.585Z,99467.52
2023-02-01T22:34:44.757Z,99470.47
2023-02-01T22:37:13.019Z,99467.06
2023-02-01T22:39:43.355Z,99468.02
2023-02-01T22:42:11.937Z,99472.10
2023-02-01T22:44:41.364Z,99469.33
2023-02-01T22:47:09.934Z,99469.66
2023-02-01T22:49:38.499Z,99470.55
2023-02-01T22:52:07.007Z,99473.60
2023-02-01T22:54:35.865Z,99479.11
2023-02-01T22:57:03.954Z,99478.98
2023-02-01T22:59:32.628Z,99477.96
2023-02-01T23:02:00.893Z,99481.33
2023-02-01T23:04:29.474Z,99484.53
2023-02-01T23:06:58.773Z,99486.05
2023-02-01T23:09:27.155Z,99483.52
2023-02-01T23:11:55.658Z,99476.98
2023-02-01T23:14:28.005Z,99475.59
2023-02-01T23:16:56.584Z,99473.68
2023-02-01T23:19:24.832Z,99475.23
2023-02-01T23:21:53.548Z,99475.20
2023-02-01T23:24:22.745Z,99473.16
2023-02-01T23:26:50.857Z,99473.86
2023-02-01T23:29:19.190Z,99474.92
2023-02-01T23:31:47.607Z,99476.04
2023-02-01T23:34:16.056Z,99471.20
2023-02-01T23:36:44.432Z,99473.63
2023-02-01T23:39:12.788Z,99471.29
2023-02-01T23:41:41.292Z,99473.80
2023-02-01T23:44:10.191Z,99470.29
2023-02-01T23:46:40.256Z,99465.48
2023-02-01T23:49:10.322Z,99465.65
2023-02-01T23:51:39.418Z,99466.30
2023-02-01T23:54:08.619Z,99468.36
2023-02-01T23:56:41.703Z,99467.23
2023-02-01T23:59:20.572Z,99469.60
